createdAt,value
2023-08-30T00:00:52.076Z,83.50
2023-08-30T00:03:54.214Z,83.60
2023-08-30T00:06:56.404Z,83.60
2023-08-30T00:10:00.224Z,83.40
2023-08-30T00:13:02.647Z,83.00
2023-08-30T00:16:04.940Z,83.10
2023-08-30T00:19:07.720Z,82.90
2023-08-30T00:22:09.805Z,83.00
2023-08-30T00:25:11.932Z,82.70
2023-08-30T00:28:14.056Z,83.30
2023-08-30T00:31:18.417Z,83.10
2023-08-30T00:34:20.613Z,83.00
2023-08-30T00:37:22.684Z,83.10
2023-08-30T00:40:25.909Z,83.60
2023-08-30T00:43:28.866Z,83.40
2023-08-30T00:46:32.785Z,83.30
2023-08-30T00:49:35.223Z,82.40
2023-08-30T00:52:37.478Z,83.50
2023-08-30T00:55:40.288Z,82.90
2023-08-30T00:58:42.879Z,82.60
2023-08-30T01:01:45.875Z,82.90
2023-08-30T01:04:48.508Z,82.60
2023-08-30T01:07:53.862Z,83.10
2023-08-30T01:11:10.692Z,83.00
2023-08-30T01:14:18.803Z,83.00
2023-08-30T01:17:24.269Z,82.70
2023-08-30T01:20:28.596Z,82.70
2023-08-30T01:23:59.699Z,82.90
2023-08-30T01:27:10.508Z,83.50
2023-08-30T01:30:14.245Z,83.80
2023-08-30T01:33:19.011Z,84.00
2023-08-30T01:36:21.442Z,83.50
2023-08-30T01:39:24.966Z,84.00
2023-08-30T01:42:29.753Z,83.90
2023-08-30T01:45:33.391Z,84.60
2023-08-30T01:48:37.181Z,84.20
2023-08-30T01:51:39.913Z,84.20
2023-08-30T01:54:43.895Z,83.60
2023-08-30T01:57:46.016Z,83.20
2023-08-30T02:00:48.049Z,83.60
2023-08-30T02:03:50.963Z,83.30
2023-08-30T02:07:01.620Z,82.80
2023-08-30T02:10:15.237Z,82.80
2023-08-30T02:13:18.953Z,83.10
2023-08-30T02:16:23.425Z,83.40
2023-08-30T02:19:26.370Z,83.30
2023-08-30T02:22:28.451Z,82.90
2023-08-30T02:25:30.712Z,82.70
2023-08-30T02:28:32.965Z,82.70
2023-08-30T02:31:35.352Z,82.80
2023-08-30T02:34:38.219Z,83.10
2023-08-30T02:37:40.712Z,82.80
2023-08-30T02:40:42.752Z,83.20
2023-08-30T02:43:44.869Z,83.20
2023-08-30T02:46:48.140Z,83.50
2023-08-30T02:49:50.363Z,82.90
2023-08-30T02:52:52.985Z,82.90
2023-08-30T02:55:55.141Z,83.10
2023-08-30T02:58:58.120Z,83.00
2023-08-30T03:02:00.763Z,82.80
2023-08-30T03:05:03.055Z,83.30
2023-08-30T03:08:05.440Z,83.10
2023-08-30T03:11:14.947Z,82.90
2023-08-30T03:14:22.808Z,82.80
2023-08-30T03:17:26.133Z,83.00
2023-08-30T03:20:29.020Z,83.00
2023-08-30T03:23:32.661Z,83.00
2023-08-30T03:26:37.084Z,83.00
2023-08-30T03:29:39.301Z,83.30
2023-08-30T03:32:41.684Z,83.10
2023-08-30T03:35:43.733Z,83.00
2023-08-30T03:38:47.173Z,83.10
2023-08-30T03:41:49.586Z,83.50
2023-08-30T03:44:51.863Z,83.60
2023-08-30T03:47:54.941Z,83.50
2023-08-30T03:50:57.562Z,83.80
2023-08-30T03:53:59.695Z,83.50
2023-08-30T03:57:01.927Z,83.20
2023-08-30T04:00:04.121Z,83.40
2023-08-30T04:03:17.062Z,83.00
2023-08-30T04:06:19.227Z,83.10
2023-08-30T04:09:24.334Z,83.60
2023-08-30T04:12:26.416Z,83.30
2023-08-30T04:15:28.839Z,83.20
2023-08-30T04:18:30.916Z,83.10
2023-08-30T04:21:32.995Z,83.80
2023-08-30T04:24:35.068Z,83.90
2023-08-30T04:27:37.672Z,83.70
2023-08-30T04:30:40.301Z,83.90
2023-08-30T04:33:43.695Z,84.50
2023-08-30T04:36:46.028Z,84.10
2023-08-30T04:39:49.474Z,84.60
2023-08-30T04:42:52.282Z,84.60
2023-08-30T04:45:54.994Z,84.60
2023-08-30T04:48:59.003Z,84.00
2023-08-30T04:52:01.091Z,84.10
2023-08-30T04:55:04.136Z,84.20
2023-08-30T04:58:07.289Z,84.40
2023-08-30T05:01:10.796Z,84.20
2023-08-30T05:04:16.596Z,84.40
2023-08-30T05:07:18.627Z,84.00
2023-08-30T05:10:21.798Z,83.90
2023-08-30T05:13:24.499Z,84.30
2023-08-30T05:16:26.657Z,84.40
2023-08-30T05:19:29.722Z,84.30
2023-08-30T05:22:32.488Z,84.20
2023-08-30T05:25:34.494Z,83.80
2023-08-30T05:28:38.088Z,83.20
2023-08-30T05:31:41.804Z,83.40
2023-08-30T05:35:16.334Z,83.30
2023-08-30T05:38:40.506Z,83.80
2023-08-30T05:41:51.245Z,83.70
2023-08-30T05:44:54.787Z,83.50
2023-08-30T05:47:56.910Z,83.70
2023-08-30T05:50:58.992Z,83.70
2023-08-30T05:54:01.051Z,83.20
2023-08-30T05:57:03.354Z,83.00
2023-08-30T06:00:08.309Z,82.50
2023-08-30T06:03:15.659Z,82.70
2023-08-30T06:06:17.902Z,82.70
2023-08-30T06:09:20.311Z,82.10
2023-08-30T06:12:22.442Z,82.50
2023-08-30T06:15:24.752Z,82.40
2023-08-30T06:18:30.849Z,82.40
2023-08-30T06:21:38.257Z,82.10
2023-08-30T06:24:40.549Z,81.60
2023-08-30T06:27:44.142Z,82.00
2023-08-30T06:30:46.183Z,80.70
2023-08-30T06:33:48.159Z,81.10
2023-08-30T06:36:50.500Z,80.60
2023-08-30T06:39:56.592Z,80.00
2023-08-30T06:42:59.095Z,78.70
2023-08-30T06:46:01.083Z,78.40
2023-08-30T06:49:03.127Z,77.50
2023-08-30T06:52:05.528Z,77.20
2023-08-30T06:55:08.238Z,75.80
2023-08-30T06:58:10.507Z,76.60
2023-08-30T07:01:12.924Z,75.10
2023-08-30T07:04:15.549Z,74.70
2023-08-30T07:07:17.856Z,72.80
2023-08-30T07:10:24.732Z,71.80
2023-08-30T07:13:26.992Z,71.30
2023-08-30T07:16:29.084Z,71.60
2023-08-30T07:19:31.279Z,70.70
2023-08-30T07:22:33.359Z,71.30
2023-08-30T07:25:35.368Z,69.40
2023-08-30T07:28:37.367Z,69.40
2023-08-30T07:31:39.511Z,68.90
2023-08-30T07:34:41.527Z,68.50
2023-08-30T07:37:43.828Z,68.40
2023-08-30T07:40:45.867Z,67.70
2023-08-30T07:43:48.054Z,66.20
2023-08-30T07:46:50.120Z,66.60
2023-08-30T07:49:52.177Z,66.10
2023-08-30T07:52:54.317Z,66.40
2023-08-30T07:55:57.098Z,65.60
2023-08-30T07:58:59.562Z,65.00
2023-08-30T08:02:01.818Z,65.60
2023-08-30T08:05:03.945Z,65.30
2023-08-30T08:08:06.317Z,64.90
2023-08-30T08:11:09.037Z,64.40
2023-08-30T08:14:12.350Z,65.70
2023-08-30T08:17:14.561Z,63.90
2023-08-30T08:20:16.659Z,64.20
2023-08-30T08:23:19.055Z,63.30
2023-08-30T08:26:23.413Z,62.90
2023-08-30T08:29:25.468Z,62.20
2023-08-30T08:32:27.713Z,61.40
2023-08-30T08:35:29.903Z,61.30
2023-08-30T08:38:34.655Z,59.30
2023-08-30T08:41:45.387Z,60.10
2023-08-30T08:44:55.669Z,60.70
2023-08-30T08:47:57.916Z,62.80
2023-08-30T08:51:01.227Z,63.70
2023-08-30T08:54:05.727Z,64.80
2023-08-30T08:57:08.802Z,62.90
2023-08-30T09:00:11.331Z,65.80
2023-08-30T09:03:15.825Z,66.60
2023-08-30T09:06:28.903Z,66.50
2023-08-30T09:09:32.231Z,66.20
2023-08-30T09:12:37.074Z,66.40
2023-08-30T09:15:39.149Z,66.20
2023-08-30T09:18:50.673Z,65.40
2023-08-30T09:22:00.681Z,65.40
2023-08-30T09:25:03.023Z,66.00
2023-08-30T09:28:05.326Z,67.20
2023-08-30T09:31:21.268Z,68.20
2023-08-30T09:34:25.795Z,68.50
2023-08-30T09:37:27.829Z,67.00
2023-08-30T09:40:29.839Z,68.90
2023-08-30T09:43:34.097Z,68.00
2023-08-30T09:46:51.471Z,68.00
2023-08-30T09:49:56.903Z,68.10
2023-08-30T09:52:59.083Z,68.50
2023-08-30T09:56:02.233Z,67.80
2023-08-30T09:59:06.224Z,68.90
2023-08-30T10:02:09.982Z,65.50
2023-08-30T10:05:13.337Z,67.30
2023-08-30T10:08:15.772Z,67.80
2023-08-30T10:11:19.713Z,68.10
2023-08-30T10:14:26.581Z,66.30
2023-08-30T10:17:33.865Z,68.20
2023-08-30T10:20:38.349Z,68.90
2023-08-30T10:23:41.876Z,68.80
2023-08-30T10:26:46.863Z,67.00
2023-08-30T10:29:50.929Z,69.10
2023-08-30T10:32:53.058Z,65.10
2023-08-30T10:35:55.079Z,66.80
2023-08-30T10:38:57.471Z,64.60
2023-08-30T10:41:59.834Z,63.80
2023-08-30T10:48:13.987Z,62.40
2023-08-30T11:03:22.795Z,57.00
2023-08-30T11:06:24.906Z,57.10
2023-08-30T11:09:26.975Z,58.30
2023-08-30T11:12:29.021Z,58.20
2023-08-30T11:15:31.104Z,57.40
2023-08-30T11:18:38.697Z,56.70
2023-08-30T11:21:44.960Z,55.70
2023-08-30T11:24:49.221Z,54.20
2023-08-30T11:27:51.596Z,56.80
2023-08-30T11:30:57.219Z,56.80
2023-08-30T11:34:00.582Z,55.70
2023-08-30T11:37:02.680Z,57.10
2023-08-30T11:40:06.464Z,58.10
2023-08-30T11:43:09.261Z,58.00
2023-08-30T11:46:11.690Z,59.70
2023-08-30T11:49:14.877Z,60.20
2023-08-30T11:52:18.633Z,57.80
2023-08-30T11:55:22.771Z,57.80
2023-08-30T11:58:24.850Z,56.00
2023-08-30T12:01:26.996Z,53.60
2023-08-30T12:04:29.201Z,54.60
2023-08-30T12:07:31.262Z,56.30
2023-08-30T12:10:34.875Z,55.50
2023-08-30T12:13:36.934Z,57.70
2023-08-30T12:16:38.997Z,56.50
2023-08-30T12:19:41.079Z,56.10
2023-08-30T12:22:43.666Z,54.80
2023-08-30T12:25:46.341Z,56.60
2023-08-30T12:28:48.588Z,53.90
2023-08-30T12:31:50.816Z,54.00
2023-08-30T12:34:56.455Z,53.20
2023-08-30T12:38:02.506Z,53.80
2023-08-30T12:41:04.600Z,51.00
2023-08-30T12:44:06.823Z,53.30
2023-08-30T12:47:09.684Z,53.10
2023-08-30T12:50:12.422Z,52.00
2023-08-30T12:53:15.019Z,54.00
2023-08-30T12:56:17.080Z,52.80
2023-08-30T12:59:19.474Z,56.30
2023-08-30T13:02:21.934Z,51.80
2023-08-30T13:05:24.086Z,51.40
2023-08-30T13:08:28.957Z,53.30
2023-08-30T13:11:31.178Z,53.70
2023-08-30T13:14:33.236Z,53.50
2023-08-30T13:17:35.357Z,51.90
2023-08-30T13:20:40.460Z,51.40
2023-08-30T13:23:44.790Z,51.10
2023-08-30T13:26:46.811Z,55.30
2023-08-30T13:29:48.927Z,51.80
2023-08-30T13:32:51.168Z,49.60
2023-08-30T13:35:53.383Z,52.20
2023-08-30T13:38:55.435Z,51.30
2023-08-30T13:45:05.110Z,51.60
2023-08-30T13:48:07.395Z,53.80
2023-08-30T13:51:09.872Z,53.90
2023-08-30T13:54:12.263Z,52.10
2023-08-30T13:57:14.318Z,51.90
2023-08-30T14:00:16.812Z,51.60
2023-08-30T14:03:19.147Z,52.00
2023-08-30T14:06:21.299Z,51.20
2023-08-30T14:09:24.100Z,52.30
2023-08-30T14:12:26.319Z,53.70
2023-08-30T14:15:28.806Z,54.00
2023-08-30T14:18:31.277Z,55.60
2023-08-30T14:21:33.883Z,52.00
2023-08-30T14:24:42.845Z,53.50
2023-08-30T14:27:49.213Z,52.90
2023-08-30T14:30:51.260Z,53.50
2023-08-30T14:33:56.234Z,50.40
2023-08-30T14:36:58.232Z,51.40
2023-08-30T14:40:01.105Z,50.70
2023-08-30T14:43:06.449Z,51.60
2023-08-30T14:46:12.909Z,50.70
2023-08-30T14:49:16.834Z,51.80
2023-08-30T14:52:19.789Z,52.00
2023-08-30T14:55:22.435Z,52.50
2023-08-30T14:58:24.667Z,52.90
2023-08-30T15:01:26.965Z,54.50
2023-08-30T15:04:29.316Z,53.90
2023-08-30T15:07:31.355Z,53.30
2023-08-30T15:10:33.928Z,53.10
2023-08-30T15:13:36.647Z,51.90
2023-08-30T15:16:38.867Z,52.00
2023-08-30T15:19:42.046Z,51.60
2023-08-30T15:22:44.939Z,52.80
2023-08-30T15:25:48.205Z,53.10
2023-08-30T15:28:50.477Z,51.70
2023-08-30T15:31:52.644Z,52.40
2023-08-30T15:34:55.052Z,53.10
2023-08-30T15:37:58.622Z,53.30
2023-08-30T15:41:01.264Z,53.40
2023-08-30T15:44:03.697Z,52.50
2023-08-30T15:47:06.034Z,53.00
2023-08-30T15:50:09.091Z,53.30
2023-08-30T15:53:11.317Z,52.90
2023-08-30T15:56:13.448Z,54.80
2023-08-30T15:59:15.601Z,53.70
2023-08-30T16:02:18.493Z,53.60
2023-08-30T16:05:20.800Z,53.10
2023-08-30T16:08:22.993Z,56.50
2023-08-30T16:11:25.169Z,55.20
2023-08-30T16:14:27.336Z,55.00
2023-08-30T16:17:29.522Z,54.60
2023-08-30T16:20:32.732Z,55.50
2023-08-30T16:23:35.229Z,55.70
2023-08-30T16:26:38.007Z,54.80
2023-08-30T16:29:40.178Z,54.90
2023-08-30T16:32:42.439Z,56.80
2023-08-30T16:35:44.687Z,55.10
2023-08-30T16:38:46.773Z,54.70
2023-08-30T16:41:48.868Z,55.30
2023-08-30T16:44:50.964Z,56.60
2023-08-30T16:48:06.562Z,56.80
2023-08-30T16:51:10.244Z,56.90
2023-08-30T16:54:12.378Z,54.20
2023-08-30T16:57:15.176Z,55.20
2023-08-30T17:00:18.012Z,53.60
2023-08-30T17:03:20.232Z,56.00
2023-08-30T17:06:23.573Z,55.50
2023-08-30T17:09:25.752Z,53.80
2023-08-30T17:12:27.905Z,55.80
2023-08-30T17:15:30.295Z,54.70
2023-08-30T17:18:32.416Z,54.00
2023-08-30T17:21:35.328Z,54.10
2023-08-30T17:24:37.603Z,54.20
2023-08-30T17:27:42.129Z,54.70
2023-08-30T17:30:44.622Z,55.50
2023-08-30T17:33:46.620Z,54.80
2023-08-30T17:36:48.793Z,54.50
2023-08-30T17:39:50.983Z,54.20
2023-08-30T17:42:55.270Z,55.40
2023-08-30T17:46:00.759Z,54.60
2023-08-30T17:49:05.018Z,56.10
2023-08-30T17:52:07.352Z,57.00
2023-08-30T17:55:10.007Z,57.30
2023-08-30T17:58:12.403Z,57.60
2023-08-30T18:01:14.502Z,57.10
2023-08-30T18:04:16.589Z,57.90
2023-08-30T18:07:18.736Z,57.40
2023-08-30T18:10:23.539Z,59.40
2023-08-30T18:13:25.646Z,58.90
2023-08-30T18:16:29.206Z,58.50
2023-08-30T18:22:45.434Z,60.30
2023-08-30T18:25:47.816Z,60.20
2023-08-30T18:28:50.239Z,60.00
2023-08-30T18:31:52.633Z,59.70
2023-08-30T18:35:01.708Z,59.90
2023-08-30T18:38:03.930Z,59.00
2023-08-30T18:44:14.982Z,69.00
2023-08-30T18:47:21.762Z,71.70
2023-08-30T18:50:25.061Z,72.80
2023-08-30T18:53:27.168Z,74.30
2023-08-30T18:56:31.880Z,77.00
2023-08-30T18:59:34.232Z,77.30
2023-08-30T19:02:36.805Z,78.00
2023-08-30T19:05:39.174Z,80.10
2023-08-30T19:08:42.102Z,80.60
2023-08-30T19:11:44.556Z,81.10
2023-08-30T19:14:49.535Z,79.40
2023-08-30T19:17:52.296Z,80.10
2023-08-30T19:21:01.556Z,79.90
2023-08-30T19:24:04.326Z,79.70
2023-08-30T19:27:07.700Z,80.20
2023-08-30T19:30:11.866Z,80.30
2023-08-30T19:33:14.578Z,81.60
2023-08-30T19:36:17.430Z,80.10
2023-08-30T19:39:19.486Z,78.40
2023-08-30T19:42:21.468Z,79.00
2023-08-30T19:45:23.766Z,79.70
2023-08-30T19:48:26.128Z,80.20
2023-08-30T19:51:28.157Z,80.40
2023-08-30T19:54:30.321Z,79.00
2023-08-30T19:57:32.479Z,78.80
2023-08-30T20:00:34.578Z,79.90
2023-08-30T20:03:36.735Z,78.80
2023-08-30T20:06:38.920Z,78.00
2023-08-30T20:09:42.519Z,79.30
2023-08-30T20:12:45.419Z,79.40
2023-08-30T20:15:57.472Z,79.50
2023-08-30T20:19:00.060Z,78.60
2023-08-30T20:22:02.034Z,78.20
2023-08-30T20:25:04.066Z,78.50
2023-08-30T20:28:09.056Z,77.70
2023-08-30T20:31:11.664Z,77.90
2023-08-30T20:34:14.586Z,78.50
2023-08-30T20:37:16.818Z,78.40
2023-08-30T20:40:20.392Z,79.10
2023-08-30T20:43:25.813Z,78.70
2023-08-30T20:46:28.106Z,78.70
2023-08-30T20:49:30.199Z,78.20
2023-08-30T20:52:32.199Z,79.00
2023-08-30T20:55:42.626Z,79.20
2023-08-30T20:58:46.159Z,80.20
2023-08-30T21:01:48.345Z,80.90
2023-08-30T21:04:50.452Z,80.40
2023-08-30T21:07:52.440Z,80.90
2023-08-30T21:10:54.494Z,81.80
2023-08-30T21:13:56.796Z,82.30
2023-08-30T21:16:59.010Z,82.20
2023-08-30T21:20:01.134Z,82.00
2023-08-30T21:23:03.660Z,83.10
2023-08-30T21:26:08.549Z,82.10
2023-08-30T21:29:10.851Z,82.90
2023-08-30T21:32:15.240Z,82.40
2023-08-30T21:35:17.712Z,83.40
2023-08-30T21:38:20.017Z,83.20
2023-08-30T21:41:22.755Z,83.20
2023-08-30T21:44:24.863Z,83.30
2023-08-30T21:47:26.948Z,83.90
2023-08-30T21:50:29.059Z,84.30
2023-08-30T21:53:31.476Z,84.20
2023-08-30T21:56:33.710Z,83.80
2023-08-30T21:59:35.888Z,83.60
2023-08-30T22:02:38.117Z,84.30
2023-08-30T22:05:40.127Z,85.40
2023-08-30T22:08:42.730Z,84.00
2023-08-30T22:11:44.872Z,84.60
2023-08-30T22:14:49.809Z,83.80
2023-08-30T22:17:52.987Z,83.90
2023-08-30T22:20:55.215Z,83.60
2023-08-30T22:24:00.981Z,83.70
2023-08-30T22:27:11.546Z,84.00
2023-08-30T22:30:16.243Z,84.00
2023-08-30T22:33:18.625Z,84.40
2023-08-30T22:36:21.202Z,84.70
2023-08-30T22:39:23.277Z,84.30
2023-08-30T22:42:25.857Z,83.90
2023-08-30T22:45:28.144Z,84.20
2023-08-30T22:48:32.541Z,84.00
2023-08-30T22:51:44.195Z,84.40
2023-08-30T22:54:55.716Z,84.90
2023-08-30T22:57:58.141Z,84.30
2023-08-30T23:01:03.586Z,84.80
2023-08-30T23:04:08.286Z,84.90
2023-08-30T23:07:10.530Z,84.90
2023-08-30T23:10:12.640Z,84.60
2023-08-30T23:13:14.994Z,84.80
2023-08-30T23:16:17.322Z,85.10
2023-08-30T23:19:19.466Z,85.20
2023-08-30T23:22:21.846Z,85.90
2023-08-30T23:25:23.796Z,85.50
2023-08-30T23:28:25.926Z,85.60
2023-08-30T23:31:32.500Z,85.50
2023-08-30T23:34:34.542Z,85.80
2023-08-30T23:37:36.792Z,85.80
2023-08-30T23:40:38.877Z,85.40
2023-08-30T23:43:40.912Z,84.90
2023-08-30T23:46:42.982Z,85.30
2023-08-30T23:49:45.056Z,85.40
2023-08-30T23:52:47.180Z,85.10
2023-08-30T23:55:50.217Z,84.50
2023-08-30T23:58:52.209Z,83.80
